Impacts METAR Board
IDs:

KIAH - Houston/Bush Intl, TX, US

Updated at: 0100 UTC 17 Jul 2019
Potential Impact None Slight Moderate High
Time 16/13Z 16/14Z 16/15Z 16/16Z 16/17Z 16/18Z 16/19Z 16/20Z 16/21Z 16/22Z 16/23Z 17/00Z 17/01Z
Temp83 86 89 91 93 94 95 96 93 92 91 90 87
Dewpt78 78 77 75 74 73 73 74 75 73 74 71 73
Altim30.01 30.02 30.02 30.03 30.03 30.03 30.01 29.99 29.99 29.98 29.97 29.98 29.98
VIS7 10 10 10 10 10 10 10 10 10 10 10 10
CIG-- 16 22 -- -- -- -- 50 250 250 250 250 250
CoverSCTBKNBKNSCTSCTSCTSCTBKNBKNBKNBKNBKNBKN
FltCatVFRMVFRMVFRVFRVFRVFRVFRVFRVFRVFRVFRVFRVFR
WX--------------------------
WDir170170170170210150160160160160170170180
WSpd6 8 11 10 8 11 12 17 13 12 14 9 10
WGst-- -- -- 16 -- -- 18 -- -- -- -- 20 --
Raw hourly METARs
KIAH 161253Z 17006KT 7SM SCT012 28/26 A3001 RMK AO2 SLP160 T02830256
KIAH 161353Z 17008KT 10SM BKN016 30/26 A3002 RMK AO2 SLP165 T03000256
KIAH 161453Z 17011KT 10SM BKN022 32/25 A3002 RMK AO2 SLP165 T03170250 51008
KIAH 161553Z 17010G16KT 10SM SCT030 SCT250 33/24 A3003 RMK AO2 SLP169 T03280239
KIAH 161653Z 21008KT 10SM SCT038 SCT250 34/23 A3003 RMK AO2 SLP166 T03390233
KIAH 161753Z 15011KT 10SM SCT042 SCT250 34/23 A3003 RMK AO2 SLP167 TCU DSNT NE T03440228 10344 20278 51002
KIAH 161853Z 16012G18KT 10SM SCT047 SCT250 35/23 A3001 RMK AO2 SLP161 TCU DSNT NE T03500228
KIAH 161953Z 16017KT 10SM BKN050 BKN250 36/23 A2999 RMK AO2 SLP154 CB DSNT NE T03560233
KIAH 162053Z 16013KT 10SM FEW039 SCT060 BKN250 34/24 A2999 RMK AO2 SLP154 T03390239 56013
KIAH 162153Z 16012KT 10SM FEW042 SCT060 SCT180 BKN250 33/23 A2998 RMK AO2 LTG DSNT N SLP152 CB DSNT N T03330228
KIAH 162253Z 17014KT 10SM SCT045 SCT180 BKN250 33/23 A2997 RMK AO2 SLP149 CB DSNT N T03280233
KIAH 162353Z 17009G20KT 10SM FEW040 FEW180 BKN250 32/22 A2998 RMK AO2 SLP151 T03220217 10356 20322 55003
KIAH 170053Z 18010KT 10SM FEW034 SCT180 BKN250 31/23 A2998 RMK AO2 SLP151 T03060228



Page loaded:  01:12 UTC  |   06:12 PM Pacific  |   07:12 PM Mountain  |   08:12 PM Central  |   09:12 PM Eastern

 

ADVISORIES

FORECASTS

FORECASTS

OBSERVATIONS

USER TOOLS

ABOUT US